Time,TemperatureF,DewpointF,PressureIn,WindDirection,WindDirectionDegrees,WindSpeedMPH,WindSpeedGustMPH,Humidity,HourlyPrecipIn,Conditions,Clouds,dailyrainin,SoftwareType,DateUTC
2013-03-29 00:00:00,27.5,23.6,30.20,SSW,210,0.0,0.0,85,0.00,,CLR,0.00,VWS V14.01,2013-03-29 04:00:00,
2013-03-29 00:02:00,27.5,23.6,30.20,SSW,210,0.0,0.0,85,0.00,,CLR,0.00,VWS V14.01,2013-03-29 04:02:00,
2013-03-29 00:07:00,27.5,23.6,30.20,SSW,210,0.0,0.0,85,0.00,,CLR,0.00,VWS V14.01,2013-03-29 04:07:00,
2013-03-29 00:12:00,27.5,24.1,30.20,SSW,210,0.0,0.0,87,0.00,,CLR,0.00,VWS V14.01,2013-03-29 04:12:00,
2013-03-29 00:17:00,27.5,24.1,30.20,SW,230,0.0,0.0,87,0.00,,CLR,0.00,VWS V14.01,2013-03-29 04:17:00,
2013-03-29 00:22:00,27.5,24.1,30.20,SW,230,0.0,0.0,87,0.00,,CLR,0.00,VWS V14.01,2013-03-29 04:22:00,
2013-03-29 00:27:00,27.5,24.1,30.20,SW,230,0.0,0.0,87,0.00,,CLR,0.00,VWS V14.01,2013-03-29 04:27:00,
2013-03-29 00:33:00,27.8,24.4,30.20,WSW,250,0.0,0.0,87,0.00,,CLR,0.00,VWS V14.01,2013-03-29 04:33:00,
2013-03-29 00:38:00,27.8,24.4,30.20,WSW,250,0.0,0.0,87,0.00,,CLR,0.00,VWS V14.01,2013-03-29 04:38:00,
2013-03-29 00:43:00,27.8,24.4,30.20,WSW,250,0.0,0.0,87,0.00,,CLR,0.00,VWS V14.01,2013-03-29 04:43:00,
2013-03-29 00:48:00,27.8,24.4,30.18,WSW,250,0.0,0.0,87,0.00,,CLR,0.00,VWS V14.01,2013-03-29 04:48:00,
2013-03-29 00:53:00,27.5,24.1,30.18,WSW,250,0.0,0.0,87,0.00,,CLR,0.00,VWS V14.01,2013-03-29 04:53:00,
2013-03-29 00:58:00,27.2,23.9,30.18,WSW,250,0.0,0.0,87,0.00,,CLR,0.00,VWS V14.01,2013-03-29 04:58:00,
2013-03-29 01:03:00,27.2,23.9,30.20,WSW,250,0.0,0.0,87,0.00,,CLR,0.00,VWS V14.01,2013-03-29 05:03:00,
2013-03-29 01:08:00,27.2,23.9,30.20,WSW,250,0.0,0.0,87,0.00,,CLR,0.00,VWS V14.01,2013-03-29 05:08:00,
2013-03-29 01:13:00,27.2,23.9,30.20,WSW,250,0.0,0.0,87,0.00,,CLR,0.00,VWS V14.01,2013-03-29 05:13:00,
2013-03-29 01:18:00,27.2,23.9,30.20,WSW,250,0.0,0.0,87,0.00,,CLR,0.00,VWS V14.01,2013-03-29 05:18:00,
2013-03-29 01:23:00,27.2,23.9,30.20,WSW,250,0.0,0.0,87,0.00,,CLR,0.00,VWS V14.01,2013-03-29 05:23:00,
2013-03-29 01:28:00,27.2,23.9,30.20,WSW,250,0.0,0.0,87,0.00,,CLR,0.00,VWS V14.01,2013-03-29 05:28:00,
2013-03-29 01:33:00,27.2,23.9,30.18,WSW,250,0.0,0.0,87,0.00,,CLR,0.00,VWS V14.01,2013-03-29 05:33:00,
2013-03-29 01:38:00,27.2,23.9,30.18,WSW,250,0.0,0.0,87,0.00,,CLR,0.00,VWS V14.01,2013-03-29 05:38:00,
2013-03-29 01:43:00,27.2,23.9,30.18,WSW,250,0.0,0.0,87,0.00,,CLR,0.00,VWS V14.01,2013-03-29 05:43:00,
2013-03-29 01:49:00,27.2,23.9,30.18,WSW,250,0.0,0.0,87,0.00,,CLR,0.00,VWS V14.01,2013-03-29 05:49:00,
2013-03-29 01:54:00,27.2,23.9,30.18,WSW,250,0.0,0.0,87,0.00,,CLR,0.00,VWS V14.01,2013-03-29 05:54:00,
2013-03-29 01:59:00,26.9,23.6,30.18,WSW,250,0.0,0.0,87,0.00,,CLR,0.00,VWS V14.01,2013-03-29 05:59:00,
2013-03-29 02:04:00,26.9,23.6,30.20,WSW,250,0.0,0.0,87,0.00,,CLR,0.00,VWS V14.01,2013-03-29 06:04:00,
2013-03-29 02:09:00,26.9,23.6,30.20,WSW,250,0.0,0.0,87,0.00,,CLR,0.00,VWS V14.01,2013-03-29 06:09:00,
2013-03-29 02:14:00,26.9,23.6,30.20,WSW,250,0.0,0.0,87,0.00,,CLR,0.00,VWS V14.01,2013-03-29 06:14:00,
2013-03-29 02:19:00,26.9,23.6,30.18,WSW,250,0.0,0.0,87,0.00,,CLR,0.00,VWS V14.01,2013-03-29 06:19:00,
2013-03-29 02:24:00,26.1,22.8,30.18,WSW,250,0.0,0.0,87,0.00,,CLR,0.00,VWS V14.01,2013-03-29 06:24:00,
2013-03-29 02:29:00,26.0,23.2,30.20,WSW,250,0.0,0.0,89,0.00,,CLR,0.00,VWS V14.01,2013-03-29 06:29:00,
2013-03-29 02:34:00,26.0,23.2,30.20,WSW,250,0.0,0.0,89,0.00,,CLR,0.00,VWS V14.01,2013-03-29 06:34:00,
2013-03-29 02:39:00,26.0,23.2,30.20,WSW,250,0.0,0.0,89,0.00,,CLR,0.00,VWS V14.01,2013-03-29 06:39:00,
2013-03-29 02:44:00,25.6,22.8,30.20,WSW,250,0.0,0.0,89,0.00,,CLR,0.00,VWS V14.01,2013-03-29 06:44:00,
2013-03-29 02:49:00,25.4,22.6,30.20,WSW,250,0.0,0.0,89,0.00,,CLR,0.00,VWS V14.01,2013-03-29 06:49:00,
2013-03-29 02:54:00,25.4,22.6,30.20,WSW,250,0.0,0.0,89,0.00,,CLR,0.00,VWS V14.01,2013-03-29 06:54:00,
2013-03-29 03:00:00,25.4,22.6,30.20,WSW,250,0.0,0.0,89,0.00,,CLR,0.00,VWS V14.01,2013-03-29 07:00:00,
2013-03-29 03:05:00,25.4,22.6,30.20,WSW,250,0.0,0.0,89,0.00,,CLR,0.00,VWS V14.01,2013-03-29 07:05:00,
2013-03-29 03:10:00,24.4,21.6,30.20,WSW,250,0.0,0.0,89,0.00,,CLR,0.00,VWS V14.01,2013-03-29 07:10:00,
2013-03-29 03:15:00,24.4,21.6,30.19,WSW,250,0.0,0.0,89,0.00,,CLR,0.00,VWS V14.01,2013-03-29 07:15:00,
2013-03-29 03:20:00,24.4,21.6,30.19,WSW,250,0.0,0.0,89,0.00,,CLR,0.00,VWS V14.01,2013-03-29 07:20:00,
2013-03-29 03:25:00,23.5,20.7,30.19,WSW,250,0.0,0.0,89,0.00,,CLR,0.00,VWS V14.01,2013-03-29 07:25:00,
2013-03-29 03:30:00,23.5,20.7,30.19,WSW,250,0.0,0.0,89,0.00,,CLR,0.00,VWS V14.01,2013-03-29 07:30:00,
2013-03-29 03:35:00,23.5,20.7,30.19,WSW,250,0.0,0.0,89,0.00,,CLR,0.00,VWS V14.01,2013-03-29 07:35:00,
2013-03-29 03:40:00,23.5,20.7,30.19,WSW,250,0.0,0.0,89,0.00,,CLR,0.00,VWS V14.01,2013-03-29 07:40:00,
2013-03-29 03:45:00,23.5,20.7,30.17,WSW,250,0.0,0.0,89,0.00,,CLR,0.00,VWS V14.01,2013-03-29 07:45:00,
2013-03-29 03:50:00,23.5,20.7,30.17,WSW,250,0.0,0.0,89,0.00,,CLR,0.00,VWS V14.01,2013-03-29 07:50:00,
2013-03-29 03:55:00,23.5,20.7,30.17,WSW,250,0.0,0.0,89,0.00,,CLR,0.00,VWS V14.01,2013-03-29 07:55:00,
2013-03-29 04:00:00,23.5,20.7,30.17,WSW,250,0.0,0.0,89,0.00,,CLR,0.00,VWS V14.01,2013-03-29 08:00:00,
2013-03-29 04:05:00,23.5,20.7,30.17,WSW,250,0.0,0.0,89,0.00,,CLR,0.00,VWS V14.01,2013-03-29 08:05:00,
2013-03-29 04:10:00,22.4,19.7,30.17,WSW,250,0.0,0.0,89,0.00,,CLR,0.00,VWS V14.01,2013-03-29 08:10:00,
2013-03-29 04:15:00,22.4,19.7,30.19,WSW,250,0.0,0.0,89,0.00,,CLR,0.00,VWS V14.01,2013-03-29 08:15:00,
2013-03-29 04:20:00,22.1,19.4,30.19,WSW,250,0.0,0.0,89,0.00,,CLR,0.00,VWS V14.01,2013-03-29 08:20:00,
2013-03-29 04:25:00,21.9,19.2,30.19,WSW,250,0.0,0.0,89,0.00,,CLR,0.00,VWS V14.01,2013-03-29 08:25:00,
2013-03-29 04:30:00,21.6,18.9,30.19,WSW,250,0.0,0.0,89,0.00,,CLR,0.00,VWS V14.01,2013-03-29 08:30:00,
2013-03-29 04:35:00,21.6,18.9,30.19,WSW,250,0.0,0.0,89,0.00,,CLR,0.00,VWS V14.01,2013-03-29 08:35:00,
2013-03-29 04:40:00,21.6,18.9,30.19,WSW,250,0.0,0.0,89,0.00,,CLR,0.00,VWS V14.01,2013-03-29 08:40:00,
2013-03-29 04:45:00,21.6,18.9,30.19,WSW,250,0.0,0.0,89,0.00,,CLR,0.00,VWS V14.01,2013-03-29 08:45:00,
2013-03-29 04:50:00,21.6,18.9,30.19,WSW,250,0.0,0.0,89,0.00,,CLR,0.00,VWS V14.01,2013-03-29 08:50:00,
2013-03-29 04:55:00,21.6,18.9,30.19,WSW,250,0.0,0.0,89,0.00,,CLR,0.00,VWS V14.01,2013-03-29 08:55:00,
2013-03-29 05:00:00,21.6,18.9,30.19,WSW,250,0.0,0.0,89,0.00,,CLR,0.00,VWS V14.01,2013-03-29 09:00:00,
2013-03-29 05:05:00,20.6,17.9,30.19,WSW,250,0.0,0.0,89,0.00,,CLR,0.00,VWS V14.01,2013-03-29 09:05:00,
2013-03-29 05:10:00,20.6,17.9,30.19,WSW,250,0.0,0.0,89,0.00,,CLR,0.00,VWS V14.01,2013-03-29 09:10:00,
2013-03-29 05:15:00,20.6,17.9,30.19,WSW,250,0.0,0.0,89,0.00,,CLR,0.00,VWS V14.01,2013-03-29 09:15:00,
2013-03-29 05:20:00,20.6,17.9,30.19,WSW,250,0.0,0.0,89,0.00,,CLR,0.00,VWS V14.01,2013-03-29 09:20:00,
2013-03-29 05:26:00,20.6,17.9,30.19,WSW,250,0.0,0.0,89,0.00,,CLR,0.00,VWS V14.01,2013-03-29 09:26:00,
2013-03-29 05:31:00,20.3,17.6,30.19,WSW,250,0.0,0.0,89,0.00,,CLR,0.00,VWS V14.01,2013-03-29 09:31:00,
2013-03-29 05:36:00,20.3,17.6,30.19,WSW,250,0.0,0.0,89,0.00,,CLR,0.00,VWS V14.01,2013-03-29 09:36:00,
2013-03-29 05:41:00,20.3,17.6,30.19,WSW,250,0.0,0.0,89,0.00,,CLR,0.00,VWS V14.01,2013-03-29 09:41:00,
2013-03-29 05:46:00,20.2,17.5,30.19,WSW,250,0.0,0.0,89,0.00,,CLR,0.00,VWS V14.01,2013-03-29 09:46:00,
2013-03-29 05:51:00,20.2,17.5,30.19,WSW,250,0.0,0.0,89,0.00,,CLR,0.00,VWS V14.01,2013-03-29 09:51:00,
2013-03-29 05:56:00,20.2,17.5,30.19,WSW,250,0.0,0.0,89,0.00,,CLR,0.00,VWS V14.01,2013-03-29 09:56:00,
2013-03-29 06:01:00,20.2,17.5,30.17,WSW,250,0.0,0.0,89,0.00,,CLR,0.00,VWS V14.01,2013-03-29 10:01:00,
2013-03-29 06:06:00,19.7,17.0,30.17,WSW,250,0.0,0.0,89,0.00,,CLR,0.00,VWS V14.01,2013-03-29 10:06:00,
2013-03-29 06:11:00,19.7,17.0,30.17,WSW,250,0.0,0.0,89,0.00,,CLR,0.00,VWS V14.01,2013-03-29 10:11:00,
2013-03-29 06:16:00,19.7,17.0,30.20,WSW,250,0.0,0.0,89,0.00,,CLR,0.00,VWS V14.01,2013-03-29 10:16:00,
2013-03-29 06:21:00,19.4,16.7,30.20,WSW,250,0.0,0.0,89,0.00,,CLR,0.00,VWS V14.01,2013-03-29 10:21:00,
2013-03-29 06:26:00,19.4,16.7,30.20,WSW,250,0.0,0.0,89,0.00,,CLR,0.00,VWS V14.01,2013-03-29 10:26:00,
2013-03-29 06:31:00,19.4,16.7,30.20,WSW,250,0.0,0.0,89,0.00,,CLR,0.00,VWS V14.01,2013-03-29 10:31:00,
2013-03-29 06:36:00,19.4,16.7,30.20,WSW,250,0.0,0.0,89,0.00,,CLR,0.00,VWS V14.01,2013-03-29 10:36:00,
2013-03-29 06:41:00,19.4,16.7,30.20,WSW,250,0.0,0.0,89,0.00,,CLR,0.00,VWS V14.01,2013-03-29 10:41:00,
2013-03-29 06:46:00,19.4,16.7,30.20,WSW,250,0.0,0.0,89,0.00,,CLR,0.00,VWS V14.01,2013-03-29 10:46:00,
2013-03-29 06:52:00,19.4,16.7,30.20,WSW,250,0.0,0.0,89,0.00,,CLR,0.00,VWS V14.01,2013-03-29 10:52:00,
2013-03-29 06:57:00,19.4,16.7,30.20,WSW,250,0.0,0.0,89,0.00,,CLR,0.00,VWS V14.01,2013-03-29 10:57:00,
2013-03-29 07:02:00,19.1,16.4,30.20,WSW,250,0.0,0.0,89,0.00,,CLR,0.00,VWS V14.01,2013-03-29 11:02:00,
2013-03-29 07:07:00,19.1,16.4,30.20,WSW,250,0.0,0.0,89,0.00,,CLR,0.00,VWS V14.01,2013-03-29 11:07:00,
2013-03-29 07:12:00,19.1,16.4,30.20,WSW,250,0.0,0.0,89,0.00,,CLR,0.00,VWS V14.01,2013-03-29 11:12:00,
2013-03-29 07:17:00,19.1,16.4,30.21,WSW,250,0.0,0.0,89,0.00,,CLR,0.00,VWS V14.01,2013-03-29 11:17:00,
2013-03-29 07:22:00,19.1,16.4,30.21,WSW,250,0.0,0.0,89,0.00,,CLR,0.00,VWS V14.01,2013-03-29 11:22:00,
2013-03-29 07:27:00,18.6,15.9,30.21,WSW,250,0.0,0.0,89,0.00,,CLR,0.00,VWS V14.01,2013-03-29 11:27:00,
2013-03-29 07:32:00,18.4,15.7,30.21,WSW,250,0.0,0.0,89,0.00,,CLR,0.00,VWS V14.01,2013-03-29 11:32:00,
2013-03-29 07:37:00,18.4,15.7,30.21,WSW,250,0.0,0.0,89,0.00,,CLR,0.00,VWS V14.01,2013-03-29 11:37:00,
2013-03-29 07:42:00,18.4,15.7,30.21,WSW,250,0.0,0.0,89,0.00,,,0.00,VWS V14.01,2013-03-29 11:42:00,
2013-03-29 07:47:00,18.4,15.7,30.21,WSW,250,0.0,0.0,89,0.00,,,0.00,VWS V14.01,2013-03-29 11:47:00,
2013-03-29 07:52:00,18.4,15.7,30.21,WSW,250,0.0,0.0,89,0.00,,,0.00,VWS V14.01,2013-03-29 11:52:00,
2013-03-29 07:58:00,18.1,15.1,30.21,WSW,250,0.0,0.0,88,0.00,,,0.00,VWS V14.01,2013-03-29 11:58:00,
2013-03-29 08:03:00,18.1,15.1,30.22,WSW,250,0.0,0.0,88,0.00,,CLR,0.00,VWS V14.01,2013-03-29 12:03:00,
2013-03-29 08:08:00,18.1,15.1,30.22,North,0,0.0,0.0,88,0.00,,CLR,0.00,VWS V14.01,2013-03-29 12:08:00,
2013-03-29 08:13:00,18.1,15.1,30.22,North,0,0.0,0.0,88,0.00,,CLR,0.00,VWS V14.01,2013-03-29 12:13:00,
2013-03-29 08:18:00,18.1,15.1,30.22,WSW,250,0.0,0.0,88,0.00,,CLR,0.00,VWS V14.01,2013-03-29 12:18:00,
2013-03-29 08:23:00,18.1,15.1,30.22,WSW,250,0.0,0.0,88,0.00,,CLR,0.00,VWS V14.01,2013-03-29 12:23:00,
2013-03-29 08:28:00,18.1,15.1,30.22,WSW,250,0.0,0.0,88,0.00,,CLR,0.00,VWS V14.01,2013-03-29 12:28:00,
2013-03-29 08:33:00,18.1,15.1,30.21,WSW,250,0.0,0.0,88,0.00,,CLR,0.00,VWS V14.01,2013-03-29 12:33:00,
2013-03-29 08:38:00,18.1,15.1,30.21,WSW,250,0.0,0.0,88,0.00,,CLR,0.00,VWS V14.01,2013-03-29 12:38:00,
2013-03-29 08:43:00,18.1,15.1,30.21,WSW,250,0.0,0.0,88,0.00,,CLR,0.00,VWS V14.01,2013-03-29 12:43:00,
2013-03-29 08:48:00,18.1,15.1,30.21,WSW,250,0.0,0.0,88,0.00,,CLR,0.00,VWS V14.01,2013-03-29 12:48:00,
2013-03-29 08:53:00,18.1,15.1,30.21,WSW,250,0.0,0.0,88,0.00,,CLR,0.00,VWS V14.01,2013-03-29 12:53:00,
2013-03-29 08:59:00,18.1,16.2,30.21,WSW,250,0.0,0.0,92,0.00,,CLR,0.00,VWS V14.01,2013-03-29 12:59:00,
2013-03-29 09:04:00,18.1,16.2,30.21,WSW,250,0.0,0.0,92,0.00,,CLR,0.00,VWS V14.01,2013-03-29 13:04:00,
2013-03-29 09:09:00,18.1,16.2,30.21,WSW,250,0.0,0.0,92,0.00,,CLR,0.00,VWS V14.01,2013-03-29 13:09:00,
2013-03-29 09:14:00,18.1,16.2,30.21,WSW,250,0.0,0.0,92,0.00,,CLR,0.00,VWS V14.01,2013-03-29 13:14:00,
2013-03-29 09:19:00,18.1,16.2,30.21,WSW,250,0.0,0.0,92,0.00,,CLR,0.00,VWS V14.01,2013-03-29 13:19:00,
2013-03-29 09:24:00,18.1,16.2,30.21,WSW,250,0.0,0.0,92,0.00,,CLR,0.00,VWS V14.01,2013-03-29 13:24:00,
2013-03-29 09:29:00,18.1,16.2,30.21,WSW,250,0.0,0.0,92,0.00,,CLR,0.00,VWS V14.01,2013-03-29 13:29:00,
2013-03-29 09:34:00,18.1,16.2,30.22,WSW,250,0.0,0.0,92,0.00,,CLR,0.00,VWS V14.01,2013-03-29 13:34:00,
2013-03-29 09:39:00,18.1,16.2,30.22,WSW,250,0.0,0.0,92,0.00,,CLR,0.00,VWS V14.01,2013-03-29 13:39:00,
2013-03-29 09:44:00,18.1,16.2,30.22,WSW,250,0.0,0.0,92,0.00,,CLR,0.00,VWS V14.01,2013-03-29 13:44:00,
2013-03-29 09:49:00,18.1,16.2,30.22,WSW,250,0.0,0.0,92,0.00,,CLR,0.00,VWS V14.01,2013-03-29 13:49:00,
2013-03-29 09:54:00,18.1,16.2,30.22,WSW,250,0.0,0.0,92,0.00,,CLR,0.00,VWS V14.01,2013-03-29 13:54:00,
2013-03-29 09:59:00,18.1,16.2,30.22,WSW,250,0.0,0.0,92,0.00,,CLR,0.00,VWS V14.01,2013-03-29 13:59:00,
2013-03-29 10:04:00,38.9,36.8,30.22,WSW,247,0.0,0.0,92,0.00,,CLR,0.00,VWS V14.01,2013-03-29 14:04:00,
2013-03-29 10:09:00,39.2,37.1,30.22,WNW,284,0.0,0.0,92,0.00,,CLR,0.00,VWS V14.01,2013-03-29 14:09:00,
2013-03-29 10:14:00,39.2,37.1,30.22,WNW,284,0.0,0.0,92,0.00,,CLR,0.00,VWS V14.01,2013-03-29 14:14:00,
2013-03-29 10:19:00,39.2,37.1,30.21,WSW,257,0.0,0.0,92,0.00,,CLR,0.00,VWS V14.01,2013-03-29 14:19:00,
2013-03-29 10:24:00,40.3,38.2,30.21,WSW,257,0.0,0.0,92,0.00,,CLR,0.00,VWS V14.01,2013-03-29 14:24:00,
2013-03-29 10:29:00,40.3,38.2,30.21,WSW,257,0.0,0.0,92,0.00,,CLR,0.00,VWS V14.01,2013-03-29 14:29:00,
2013-03-29 10:34:00,40.3,38.2,30.21,WSW,257,0.0,0.0,92,0.00,,CLR,0.00,VWS V14.01,2013-03-29 14:34:00,
2013-03-29 10:39:00,41.3,39.2,30.21,West,281,0.0,0.0,92,0.00,,CLR,0.00,VWS V14.01,2013-03-29 14:39:00,
2013-03-29 10:44:00,41.3,39.2,30.21,West,281,0.0,0.0,92,0.00,,CLR,0.00,VWS V14.01,2013-03-29 14:44:00,
2013-03-29 10:49:00,41.5,23.3,30.21,NNW,337,0.0,0.0,48,0.00,,CLR,0.00,VWS V14.01,2013-03-29 14:49:00,
2013-03-29 10:54:00,42.1,23.8,30.21,NNW,340,0.0,0.0,48,0.00,,CLR,0.00,VWS V14.01,2013-03-29 14:54:00,
2013-03-29 11:00:00,42.1,22.8,30.21,North,359,0.0,0.0,46,0.00,,CLR,0.00,VWS V14.01,2013-03-29 15:00:00,
2013-03-29 11:08:00,42.2,22.4,30.21,North,0,0.0,0.0,45,0.00,,CLR,0.00,VWS V14.01,2013-03-29 15:08:00,
2013-03-29 11:13:00,42.5,22.7,30.21,NNW,336,5.0,0.0,45,0.00,,CLR,0.00,VWS V14.01,2013-03-29 15:13:00,
2013-03-29 11:18:00,42.8,23.0,30.21,West,281,0.0,0.0,45,0.00,,CLR,0.00,VWS V14.01,2013-03-29 15:18:00,
2013-03-29 11:23:00,43.2,23.3,30.21,NW,318,0.0,0.0,45,0.00,,CLR,0.00,VWS V14.01,2013-03-29 15:23:00,
2013-03-29 11:28:00,43.6,23.7,30.21,WSW,244,0.0,0.0,45,0.00,,CLR,0.00,VWS V14.01,2013-03-29 15:28:00,
2013-03-29 11:33:00,43.8,22.2,30.21,WNW,282,0.0,0.0,42,0.00,,CLR,0.00,VWS V14.01,2013-03-29 15:33:00,
2013-03-29 11:38:00,43.5,22.0,30.21,SW,234,0.0,0.0,42,0.00,,CLR,0.00,VWS V14.01,2013-03-29 15:38:00,
2013-03-29 11:43:00,43.9,22.3,30.21,NW,304,0.0,0.0,42,0.00,,CLR,0.00,VWS V14.01,2013-03-29 15:43:00,
2013-03-29 11:49:00,43.9,22.3,30.21,NW,323,0.0,0.0,42,0.00,,CLR,0.00,VWS V14.01,2013-03-29 15:49:00,
2013-03-29 11:54:00,43.9,22.3,30.21,West,264,0.0,0.0,42,0.00,,CLR,0.00,VWS V14.01,2013-03-29 15:54:00,
2013-03-29 11:59:00,43.8,22.2,30.21,SW,215,0.0,0.0,42,0.00,,CLR,0.00,VWS V14.01,2013-03-29 15:59:00,
2013-03-29 12:04:00,43.9,22.3,30.21,WNW,292,0.0,0.0,42,0.00,,CLR,0.00,VWS V14.01,2013-03-29 16:04:00,
2013-03-29 12:09:00,43.9,22.3,30.21,NNW,342,0.0,0.0,42,0.00,,CLR,0.00,VWS V14.01,2013-03-29 16:09:00,
2013-03-29 12:14:00,44.3,21.5,30.21,SW,223,0.0,0.0,40,0.00,,CLR,0.00,VWS V14.01,2013-03-29 16:14:00,
2013-03-29 12:19:00,44.3,21.5,30.21,WSW,243,0.0,0.0,40,0.00,,CLR,0.00,VWS V14.01,2013-03-29 16:19:00,
2013-03-29 12:24:00,44.6,21.8,30.21,WSW,240,0.0,0.0,40,0.00,,CLR,0.00,VWS V14.01,2013-03-29 16:24:00,
2013-03-29 12:29:00,44.6,20.6,30.21,West,281,5.0,0.0,38,0.00,,CLR,0.00,VWS V14.01,2013-03-29 16:29:00,
2013-03-29 12:34:00,45.2,21.1,30.21,WSW,243,0.0,0.0,38,0.00,,CLR,0.00,VWS V14.01,2013-03-29 16:34:00,
2013-03-29 12:40:00,45.1,22.2,30.21,West,260,0.0,0.0,40,0.00,,CLR,0.00,VWS V14.01,2013-03-29 16:40:00,
2013-03-29 12:45:00,45.1,22.2,30.21,West,260,0.0,0.0,40,0.00,,CLR,0.00,VWS V14.01,2013-03-29 16:45:00,
2013-03-29 12:50:00,45.1,22.2,30.21,West,260,0.0,0.0,40,0.00,,CLR,0.00,VWS V14.01,2013-03-29 16:50:00,
2013-03-29 12:55:00,45.1,22.2,30.21,West,260,0.0,0.0,40,0.00,,CLR,0.00,VWS V14.01,2013-03-29 16:55:00,
2013-03-29 13:00:00,45.1,22.2,30.22,West,260,0.0,0.0,40,0.00,,CLR,0.00,VWS V14.01,2013-03-29 17:00:00,
2013-03-29 13:05:00,45.1,22.2,30.22,West,260,0.0,0.0,40,0.00,,CLR,0.00,VWS V14.01,2013-03-29 17:05:00,
2013-03-29 13:10:00,45.1,22.2,30.22,SW,227,0.0,0.0,40,0.00,,CLR,0.00,VWS V14.01,2013-03-29 17:10:00,
2013-03-29 13:15:00,45.1,22.2,30.22,WNW,296,0.0,0.0,40,0.00,,CLR,0.00,VWS V14.01,2013-03-29 17:15:00,
2013-03-29 13:20:00,45.1,22.2,30.22,WNW,296,0.0,0.0,40,0.00,,CLR,0.00,VWS V14.01,2013-03-29 17:20:00,
2013-03-29 13:25:00,45.1,22.2,30.22,WNW,289,5.0,0.0,40,0.00,,CLR,0.00,VWS V14.01,2013-03-29 17:25:00,
2013-03-29 13:30:00,45.1,22.2,30.21,SW,217,3.0,0.0,40,0.00,,CLR,0.00,VWS V14.01,2013-03-29 17:30:00,
2013-03-29 13:35:00,45.1,22.2,30.21,SW,217,3.0,0.0,40,0.00,,CLR,0.00,VWS V14.01,2013-03-29 17:35:00,
2013-03-29 13:40:00,45.1,22.2,30.21,West,261,1.0,0.0,40,0.00,,CLR,0.00,VWS V14.01,2013-03-29 17:40:00,
2013-03-29 13:45:00,45.1,22.2,30.21,West,261,1.0,0.0,40,0.00,,CLR,0.00,VWS V14.01,2013-03-29 17:45:00,
2013-03-29 13:51:00,45.1,22.2,30.21,NW,323,0.0,0.0,40,0.00,,CLR,0.00,VWS V14.01,2013-03-29 17:51:00,
2013-03-29 13:56:00,44.9,22.1,30.21,WNW,284,0.0,0.0,40,0.00,,CLR,0.00,VWS V14.01,2013-03-29 17:56:00,
2013-03-29 14:01:00,44.9,22.1,30.19,NW,308,0.0,0.0,40,0.00,,CLR,0.00,VWS V14.01,2013-03-29 18:01:00,
2013-03-29 14:06:00,45.5,22.6,30.19,SW,229,1.0,0.0,40,0.00,,CLR,0.00,VWS V14.01,2013-03-29 18:06:00,
2013-03-29 14:11:00,45.4,22.5,30.19,WNW,302,0.0,0.0,40,0.00,,CLR,0.00,VWS V14.01,2013-03-29 18:11:00,
2013-03-29 14:16:00,45.4,20.7,30.19,West,281,0.0,0.0,37,0.00,,CLR,0.00,VWS V14.01,2013-03-29 18:16:00,
2013-03-29 14:21:00,44.8,20.1,30.19,West,265,0.0,0.0,37,0.00,,CLR,0.00,VWS V14.01,2013-03-29 18:21:00,
2013-03-29 14:27:00,44.9,20.2,30.19,SW,229,0.0,0.0,37,0.00,,CLR,0.00,VWS V14.01,2013-03-29 18:27:00,
2013-03-29 14:32:00,45.7,20.3,30.19,SSW,202,0.0,0.0,36,0.00,,CLR,0.00,VWS V14.01,2013-03-29 18:32:00,
2013-03-29 14:37:00,45.7,20.3,30.19,West,260,4.0,0.0,36,0.00,,CLR,0.00,VWS V14.01,2013-03-29 18:37:00,
2013-03-29 14:42:00,45.7,20.9,30.19,WSW,248,5.0,0.0,37,0.00,,CLR,0.00,VWS V14.01,2013-03-29 18:42:00,
2013-03-29 14:47:00,45.7,20.9,30.19,WNW,287,10.0,0.0,37,0.00,,CLR,0.00,VWS V14.01,2013-03-29 18:47:00,
2013-03-29 14:52:00,45.7,20.9,30.19,SSW,203,6.0,0.0,37,0.00,,CLR,0.00,VWS V14.01,2013-03-29 18:52:00,
2013-03-29 14:57:00,45.5,20.8,30.19,NNW,332,0.0,0.0,37,0.00,,CLR,0.00,VWS V14.01,2013-03-29 18:57:00,
2013-03-29 15:02:00,45.5,20.8,30.18,West,270,3.0,0.0,37,0.00,,CLR,0.00,VWS V14.01,2013-03-29 19:02:00,
2013-03-29 15:07:00,45.4,20.7,30.18,WNW,295,2.0,0.0,37,0.00,,CLR,0.00,VWS V14.01,2013-03-29 19:07:00,
2013-03-29 15:12:00,45.4,20.7,30.18,NW,315,2.0,0.0,37,0.00,,CLR,0.00,VWS V14.01,2013-03-29 19:12:00,
2013-03-29 15:17:00,45.4,20.7,30.16,WSW,248,7.0,0.0,37,0.00,,CLR,0.00,VWS V14.01,2013-03-29 19:17:00,
2013-03-29 15:22:00,45.7,20.9,30.16,West,272,3.0,0.0,37,0.00,,CLR,0.00,VWS V14.01,2013-03-29 19:22:00,
2013-03-29 15:28:00,45.5,20.8,30.16,WNW,288,0.0,0.0,37,0.00,,CLR,0.00,VWS V14.01,2013-03-29 19:28:00,
2013-03-29 15:33:00,45.5,20.8,30.16,SW,224,0.0,0.0,37,0.00,,CLR,0.00,VWS V14.01,2013-03-29 19:33:00,
2013-03-29 15:38:00,45.7,20.9,30.16,WSW,244,1.0,0.0,37,0.00,,CLR,0.00,VWS V14.01,2013-03-29 19:38:00,
2013-03-29 15:43:00,45.7,20.9,30.16,East,80,0.0,0.0,37,0.00,,CLR,0.00,VWS V14.01,2013-03-29 19:43:00,
2013-03-29 15:48:00,45.7,20.9,30.15,WNW,291,0.0,0.0,37,0.00,,CLR,0.00,VWS V14.01,2013-03-29 19:48:00,
2013-03-29 15:53:00,45.4,20.7,30.15,NNW,336,0.0,0.0,37,0.00,,CLR,0.00,VWS V14.01,2013-03-29 19:53:00,
2013-03-29 15:58:00,45.4,20.7,30.15,NNW,336,0.0,0.0,37,0.00,,CLR,0.00,VWS V14.01,2013-03-29 19:58:00,
2013-03-29 16:03:00,45.4,20.7,30.15,WNW,288,0.0,0.0,37,0.00,,CLR,0.00,VWS V14.01,2013-03-29 20:03:00,
2013-03-29 16:08:00,45.4,20.7,30.15,WSW,243,7.0,0.0,37,0.00,,CLR,0.00,VWS V14.01,2013-03-29 20:08:00,
2013-03-29 16:13:00,45.5,20.8,30.15,NNW,332,0.0,0.0,37,0.00,,CLR,0.00,VWS V14.01,2013-03-29 20:13:00,
2013-03-29 16:18:00,45.8,21.0,30.16,West,278,0.0,0.0,37,0.00,,CLR,0.00,VWS V14.01,2013-03-29 20:18:00,
2013-03-29 16:23:00,45.8,16.1,30.16,WSW,254,0.0,0.0,30,0.00,,CLR,0.00,VWS V14.01,2013-03-29 20:23:00,
2013-03-29 16:28:00,45.8,16.1,30.16,NW,312,0.0,0.0,30,0.00,,CLR,0.00,VWS V14.01,2013-03-29 20:28:00,
2013-03-29 16:33:00,45.8,16.1,30.17,WSW,241,0.0,0.0,30,0.00,,CLR,0.00,VWS V14.01,2013-03-29 20:33:00,
2013-03-29 16:38:00,46.4,16.7,30.17,West,261,3.0,0.0,30,0.00,,CLR,0.00,VWS V14.01,2013-03-29 20:38:00,
2013-03-29 16:43:00,46.5,16.8,30.17,WSW,258,0.0,0.0,30,0.00,,CLR,0.00,VWS V14.01,2013-03-29 20:43:00,
2013-03-29 16:49:00,46.5,16.8,30.16,West,280,2.0,0.0,30,0.00,,CLR,0.00,VWS V14.01,2013-03-29 20:49:00,
2013-03-29 16:54:00,46.5,16.8,30.16,West,280,2.0,0.0,30,0.00,,CLR,0.00,VWS V14.01,2013-03-29 20:54:00,
2013-03-29 16:59:00,46.5,16.8,30.16,WSW,254,0.0,0.0,30,0.00,,CLR,0.00,VWS V14.01,2013-03-29 20:59:00,
2013-03-29 17:04:00,46.5,16.8,30.16,WSW,254,0.0,0.0,30,0.00,,CLR,0.00,VWS V14.01,2013-03-29 21:04:00,
2013-03-29 17:09:00,46.5,16.8,30.16,WSW,254,0.0,0.0,30,0.00,,CLR,0.00,VWS V14.01,2013-03-29 21:09:00,
2013-03-29 17:14:00,46.0,16.3,30.16,WSW,254,0.0,0.0,30,0.00,,CLR,0.00,VWS V14.01,2013-03-29 21:14:00,
2013-03-29 17:19:00,46.0,16.3,30.14,WSW,257,0.0,0.0,30,0.00,,CLR,0.00,VWS V14.01,2013-03-29 21:19:00,
2013-03-29 17:24:00,46.0,16.3,30.14,WSW,257,0.0,0.0,30,0.00,,CLR,0.00,VWS V14.01,2013-03-29 21:24:00,
2013-03-29 17:29:00,46.0,16.3,30.14,SW,219,0.0,0.0,30,0.00,,CLR,0.00,VWS V14.01,2013-03-29 21:29:00,
2013-03-29 17:34:00,46.0,16.3,30.11,SSW,210,5.0,0.0,30,0.00,,CLR,0.00,VWS V14.01,2013-03-29 21:34:00,
2013-03-29 17:39:00,46.0,16.3,30.11,SW,224,2.0,0.0,30,0.00,,CLR,0.00,VWS V14.01,2013-03-29 21:39:00,
2013-03-29 17:44:00,44.2,14.8,30.11,SSW,212,5.0,0.0,30,0.00,,CLR,0.00,VWS V14.01,2013-03-29 21:44:00,
2013-03-29 17:49:00,44.2,19.6,30.14,West,275,4.0,0.0,37,0.00,,CLR,0.00,VWS V14.01,2013-03-29 21:49:00,
2013-03-29 17:54:00,44.2,19.6,30.14,WSW,239,5.0,0.0,37,0.00,,CLR,0.00,VWS V14.01,2013-03-29 21:54:00,
2013-03-29 17:59:00,44.2,18.3,30.11,SW,224,7.0,0.0,35,0.00,,CLR,0.00,VWS V14.01,2013-03-29 21:59:00,
2013-03-29 18:04:00,44.2,18.3,30.11,SSW,206,6.0,0.0,35,0.00,,CLR,0.00,VWS V14.01,2013-03-29 22:04:00,
2013-03-29 18:09:00,42.6,16.9,30.11,SSW,213,2.0,0.0,35,0.00,,CLR,0.00,VWS V14.01,2013-03-29 22:09:00,
2013-03-29 18:14:00,42.6,16.9,30.15,WSW,253,6.0,0.0,35,0.00,,CLR,0.00,VWS V14.01,2013-03-29 22:14:00,
2013-03-29 18:20:00,42.1,16.4,30.15,SW,217,6.0,0.0,35,0.00,,CLR,0.00,VWS V14.01,2013-03-29 22:20:00,
2013-03-29 18:25:00,41.9,16.3,30.15,SW,217,6.0,0.0,35,0.00,,CLR,0.00,VWS V14.01,2013-03-29 22:25:00,
2013-03-29 18:30:00,41.9,16.3,30.16,SW,217,6.0,0.0,35,0.00,,CLR,0.00,VWS V14.01,2013-03-29 22:30:00,
2013-03-29 18:35:00,41.5,17.2,30.16,SW,217,6.0,0.0,37,0.00,,CLR,0.00,VWS V14.01,2013-03-29 22:35:00,
2013-03-29 18:40:00,41.5,17.2,30.16,SW,236,0.0,0.0,37,0.00,,CLR,0.00,VWS V14.01,2013-03-29 22:40:00,
2013-03-29 18:45:00,41.5,17.2,30.16,WNW,295,0.0,0.0,37,0.00,,CLR,0.00,VWS V14.01,2013-03-29 22:45:00,
2013-03-29 18:50:00,41.5,17.2,30.16,WSW,240,2.0,0.0,37,0.00,,CLR,0.00,VWS V14.01,2013-03-29 22:50:00,
2013-03-29 18:55:00,41.5,17.2,30.16,WSW,241,0.0,0.0,37,0.00,,CLR,0.00,VWS V14.01,2013-03-29 22:55:00,
2013-03-29 19:00:00,40.6,16.4,30.16,WSW,257,0.0,0.0,37,0.00,,CLR,0.00,VWS V14.01,2013-03-29 23:00:00,
2013-03-29 19:05:00,40.6,16.4,30.16,WSW,254,1.0,0.0,37,0.00,,CLR,0.00,VWS V14.01,2013-03-29 23:05:00,
2013-03-29 19:10:00,40.6,16.4,30.16,West,277,0.0,0.0,37,0.00,,CLR,0.00,VWS V14.01,2013-03-29 23:10:00,
2013-03-29 19:15:00,39.8,15.7,30.16,West,278,0.0,0.0,37,0.00,,CLR,0.00,VWS V14.01,2013-03-29 23:15:00,
2013-03-29 19:20:00,39.8,15.7,30.16,WNW,287,0.0,0.0,37,0.00,,CLR,0.00,VWS V14.01,2013-03-29 23:20:00,
2013-03-29 19:25:00,39.2,15.1,30.16,WSW,254,0.0,0.0,37,0.00,,CLR,0.00,VWS V14.01,2013-03-29 23:25:00,
2013-03-29 19:30:00,39.2,15.1,30.16,WSW,253,0.0,0.0,37,0.00,,CLR,0.00,VWS V14.01,2013-03-29 23:30:00,
2013-03-29 19:36:00,38.6,14.6,30.16,SSW,210,2.0,0.0,37,0.00,,CLR,0.00,VWS V14.01,2013-03-29 23:36:00,
2013-03-29 19:41:00,38.3,14.3,30.16,SW,229,0.0,0.0,37,0.00,,CLR,0.00,VWS V14.01,2013-03-29 23:41:00,
2013-03-29 19:46:00,38.0,14.1,30.16,SW,232,0.0,0.0,37,0.00,,CLR,0.00,VWS V14.01,2013-03-29 23:46:00,
2013-03-29 19:51:00,37.8,13.9,30.16,WSW,250,0.0,0.0,37,0.00,,CLR,0.00,VWS V14.01,2013-03-29 23:51:00,
2013-03-29 19:57:00,37.2,13.3,30.16,WNW,282,0.0,0.0,37,0.00,,CLR,0.00,VWS V14.01,2013-03-29 23:57:00,
2013-03-29 20:02:00,37.2,13.3,30.16,West,281,0.0,0.0,37,0.00,,CLR,0.00,VWS V14.01,2013-03-30 00:02:00,
2013-03-29 20:07:00,36.5,12.7,30.16,West,281,0.0,0.0,37,0.00,,CLR,0.00,VWS V14.01,2013-03-30 00:07:00,
2013-03-29 20:12:00,36.5,12.7,30.16,West,281,0.0,0.0,37,0.00,,CLR,0.00,VWS V14.01,2013-03-30 00:12:00,
2013-03-29 20:17:00,35.6,11.9,30.14,West,281,0.0,0.0,37,0.00,,CLR,0.00,VWS V14.01,2013-03-30 00:17:00,
2013-03-29 20:22:00,35.2,11.6,30.14,West,281,0.0,0.0,37,0.00,,CLR,0.00,VWS V14.01,2013-03-30 00:22:00,
2013-03-29 20:27:00,34.9,20.4,30.14,West,281,0.0,0.0,55,0.00,,CLR,0.00,VWS V14.01,2013-03-30 00:27:00,
2013-03-29 20:32:00,34.3,19.8,30.14,West,281,0.0,0.0,55,0.00,,CLR,0.00,VWS V14.01,2013-03-30 00:32:00,
2013-03-29 20:37:00,34.0,19.5,30.14,West,281,0.0,0.0,55,0.00,,CLR,0.00,VWS V14.01,2013-03-30 00:37:00,
2013-03-29 20:42:00,33.2,20.0,30.14,West,281,0.0,0.0,58,0.00,,CLR,0.00,VWS V14.01,2013-03-30 00:42:00,
2013-03-29 20:47:00,32.9,19.8,30.14,West,281,0.0,0.0,58,0.00,,CLR,0.00,VWS V14.01,2013-03-30 00:47:00,
2013-03-29 20:52:00,32.7,19.6,30.14,West,281,0.0,0.0,58,0.00,,CLR,0.00,VWS V14.01,2013-03-30 00:52:00,
2013-03-29 20:58:00,32.7,19.6,30.14,West,281,0.0,0.0,58,0.00,,CLR,0.00,VWS V14.01,2013-03-30 00:58:00,
2013-03-29 21:03:00,32.7,19.6,30.14,West,281,0.0,0.0,58,0.00,,CLR,0.00,VWS V14.01,2013-03-30 01:03:00,
2013-03-29 21:08:00,31.3,20.9,30.14,West,281,0.0,0.0,65,0.00,,CLR,0.00,VWS V14.01,2013-03-30 01:08:00,
2013-03-29 21:13:00,30.9,20.5,30.14,West,281,0.0,0.0,65,0.00,,CLR,0.00,VWS V14.01,2013-03-30 01:13:00,
2013-03-29 21:18:00,30.9,21.6,30.15,West,281,0.0,0.0,68,0.00,,CLR,0.00,VWS V14.01,2013-03-30 01:18:00,
2013-03-29 21:23:00,30.3,21.0,30.15,West,281,0.0,0.0,68,0.00,,CLR,0.00,VWS V14.01,2013-03-30 01:23:00,
2013-03-29 21:28:00,30.3,21.0,30.15,West,281,0.0,0.0,68,0.00,,CLR,0.00,VWS V14.01,2013-03-30 01:28:00,
2013-03-29 21:33:00,29.3,20.1,30.15,West,281,0.0,0.0,68,0.00,,CLR,0.00,VWS V14.01,2013-03-30 01:33:00,
2013-03-29 21:38:00,29.3,20.1,30.15,West,281,0.0,0.0,68,0.00,,CLR,0.00,VWS V14.01,2013-03-30 01:38:00,
2013-03-29 21:43:00,29.3,21.1,30.15,West,281,0.0,0.0,71,0.00,,CLR,0.00,VWS V14.01,2013-03-30 01:43:00,
2013-03-29 21:48:00,28.5,20.3,30.15,West,281,0.0,0.0,71,0.00,,CLR,0.00,VWS V14.01,2013-03-30 01:48:00,
2013-03-29 21:53:00,28.5,20.3,30.15,West,281,0.0,0.0,71,0.00,,CLR,0.00,VWS V14.01,2013-03-30 01:53:00,
2013-03-29 21:58:00,28.5,20.3,30.15,West,281,0.0,0.0,71,0.00,,CLR,0.00,VWS V14.01,2013-03-30 01:58:00,
2013-03-29 22:03:00,28.5,20.3,30.15,West,281,0.0,0.0,71,0.00,,CLR,0.00,VWS V14.01,2013-03-30 02:03:00,
2013-03-29 22:08:00,28.5,20.3,30.15,West,281,0.0,0.0,71,0.00,,CLR,0.00,VWS V14.01,2013-03-30 02:08:00,
2013-03-29 22:13:00,28.5,20.3,30.15,West,281,0.0,0.0,71,0.00,,CLR,0.00,VWS V14.01,2013-03-30 02:13:00,
2013-03-29 22:18:00,28.5,21.0,30.14,West,281,0.0,0.0,73,0.00,,CLR,0.00,VWS V14.01,2013-03-30 02:18:00,
2013-03-29 22:24:00,28.5,21.0,30.14,West,281,0.0,0.0,73,0.00,,CLR,0.00,VWS V14.01,2013-03-30 02:24:00,
2013-03-29 22:29:00,26.9,19.4,30.14,West,281,0.0,0.0,73,0.00,,CLR,0.00,VWS V14.01,2013-03-30 02:29:00,
2013-03-29 22:34:00,26.9,19.4,30.14,West,281,0.0,0.0,73,0.00,,CLR,0.00,VWS V14.01,2013-03-30 02:34:00,
2013-03-29 22:39:00,26.9,19.4,30.14,West,281,0.0,0.0,73,0.00,,CLR,0.00,VWS V14.01,2013-03-30 02:39:00,
2013-03-29 22:44:00,26.7,19.2,30.14,West,281,0.0,0.0,73,0.00,,CLR,0.00,VWS V14.01,2013-03-30 02:44:00,
2013-03-29 22:49:00,26.6,19.1,30.14,West,281,0.0,0.0,73,0.00,,CLR,0.00,VWS V14.01,2013-03-30 02:49:00,
2013-03-29 22:54:00,26.6,19.1,30.14,West,281,0.0,0.0,73,0.00,,CLR,0.00,VWS V14.01,2013-03-30 02:54:00,
2013-03-29 22:59:00,26.4,18.9,30.14,West,281,0.0,0.0,73,0.00,,CLR,0.00,VWS V14.01,2013-03-30 02:59:00,
2013-03-29 23:04:00,26.4,18.9,30.14,West,281,0.0,0.0,73,0.00,,CLR,0.00,VWS V14.01,2013-03-30 03:04:00,
2013-03-29 23:09:00,26.4,18.9,30.14,West,281,0.0,0.0,73,0.00,,CLR,0.00,VWS V14.01,2013-03-30 03:09:00,
2013-03-29 23:14:00,26.4,18.9,30.14,West,281,0.0,0.0,73,0.00,,CLR,0.00,VWS V14.01,2013-03-30 03:14:00,
2013-03-29 23:19:00,26.1,19.6,30.14,West,281,0.0,0.0,76,0.00,,CLR,0.00,VWS V14.01,2013-03-30 03:19:00,
2013-03-29 23:24:00,26.1,19.6,30.14,West,281,0.0,0.0,76,0.00,,CLR,0.00,VWS V14.01,2013-03-30 03:24:00,
2013-03-29 23:29:00,26.1,19.6,30.14,West,281,0.0,0.0,76,0.00,,CLR,0.00,VWS V14.01,2013-03-30 03:29:00,
2013-03-29 23:34:00,26.1,19.6,30.14,West,281,0.0,0.0,76,0.00,,CLR,0.00,VWS V14.01,2013-03-30 03:34:00,
2013-03-29 23:39:00,26.1,19.6,30.14,West,281,0.0,0.0,76,0.00,,CLR,0.00,VWS V14.01,2013-03-30 03:39:00,
2013-03-29 23:45:00,26.1,19.6,30.14,West,281,0.0,0.0,76,0.00,,CLR,0.00,VWS V14.01,2013-03-30 03:45:00,
2013-03-29 23:50:00,25.7,19.2,30.14,West,281,0.0,0.0,76,0.00,,CLR,0.00,VWS V14.01,2013-03-30 03:50:00,
2013-03-29 23:55:00,25.7,19.2,30.14,West,281,0.0,0.0,76,0.00,,CLR,0.00,VWS V14.01,2013-03-30 03:55:00,